Time;durP1;ratioP1;P1;durP2;ratioP2;P2;SDS_P1;SDS_P2;PMS_P1;PMS_P2;Temp;Humidity;BMP_temperature;BMP_pressure;BME280_temperature;BME280_humidity;BME280_pressure;Samples;Min_cycle;Max_cycle;Signal;HPM_P1;HPM_P2
2022/02/28 00:00:30;;;;;;;8.40;6.03;;;;;;;1.22;61.12;97950.03;5071886;28;20443;-61
2022/02/28 00:02:57;;;;;;;9.70;6.20;;;;;;;1.20;61.00;97956.28;5075335;28;20213;-61
2022/02/28 00:05:23;;;;;;;11.13;6.30;;;;;;;1.19;60.64;97955.44;5074852;28;20187;-62
2022/02/28 00:07:49;;;;;;;7.97;5.33;;;;;;;1.19;61.08;97952.06;5074540;28;20197;-61
2022/02/28 00:10:16;;;;;;;8.87;6.10;;;;;;;1.18;61.25;97948.66;5075108;28;20230;-61
2022/02/28 00:12:43;;;;;;;8.90;6.27;;;;;;;1.11;61.37;97952.75;5074538;28;20188;-62
2022/02/28 00:15:10;;;;;;;8.47;6.30;;;;;;;1.06;61.42;97944.59;5074680;28;20264;-61
2022/02/28 00:17:36;;;;;;;8.77;6.10;;;;;;;1.11;61.64;97942.44;5074266;28;20237;-61
2022/02/28 00:20:12;;;;;;;11.83;5.80;;;;;;;1.07;61.45;97943.66;5074791;28;20174;-62
2022/02/28 00:22:39;;;;;;;10.20;5.63;;;;;;;1.05;61.87;97945.56;5074642;28;20185;-61
2022/02/28 00:25:08;;;;;;;8.90;6.03;;;;;;;1.13;61.56;97942.28;5074533;28;20196;-60
2022/02/28 00:27:34;;;;;;;7.57;5.83;;;;;;;1.19;61.44;97954.63;5074199;28;20185;-61
2022/02/28 00:29:59;;;;;;;8.97;5.87;;;;;;;1.14;61.33;97949.06;5074350;28;20187;-60
2022/02/28 00:32:26;;;;;;;9.63;6.60;;;;;;;1.08;61.35;97952.22;5075032;28;20181;-60
2022/02/28 00:34:52;;;;;;;10.10;6.70;;;;;;;1.03;61.98;97944.88;5074688;28;20242;-60
2022/02/28 00:37:18;;;;;;;13.83;6.60;;;;;;;1.16;61.63;97953.16;5072879;28;20197;-60
2022/02/28 00:39:44;;;;;;;10.93;6.40;;;;;;;1.07;61.41;97955.72;5074251;28;20174;-61
2022/02/28 00:42:10;;;;;;;8.03;6.03;;;;;;;1.13;61.39;97952.59;5073846;28;20565;-61
2022/02/28 00:44:36;;;;;;;8.37;6.23;;;;;;;1.19;61.41;97946.88;5072594;28;20633;-60
2022/02/28 00:47:02;;;;;;;8.57;6.33;;;;;;;1.25;61.40;97954.06;5074475;28;20207;-61
2022/02/28 00:49:28;;;;;;;10.27;5.90;;;;;;;1.17;61.43;97957.34;5074120;28;20189;-60
2022/02/28 00:51:53;;;;;;;9.70;6.67;;;;;;;1.19;61.56;97952.06;5074343;28;20342;-60
2022/02/28 00:54:19;;;;;;;9.60;6.30;;;;;;;1.13;61.92;97950.03;5073667;28;20173;-61
2022/02/28 00:56:44;;;;;;;8.80;6.37;;;;;;;1.11;61.77;97939.84;5072908;28;20183;-60
2022/02/28 00:59:10;;;;;;;10.80;7.03;;;;;;;1.21;61.79;97945.00;5072443;28;20232;-60
2022/02/28 01:01:36;;;;;;;11.77;7.10;;;;;;;1.13;61.49;97947.44;5074118;28;20208;-60
2022/02/28 01:04:03;;;;;;;10.43;7.27;;;;;;;0.99;62.44;97945.31;5072776;28;20549;-60
2022/02/28 01:06:28;;;;;;;9.37;6.40;;;;;;;0.91;62.49;97938.25;5073712;28;20692;-60
2022/02/28 01:08:54;;;;;;;9.60;5.87;;;;;;;0.96;62.68;97941.22;5073703;28;20177;-60
2022/02/28 01:11:19;;;;;;;12.37;6.60;;;;;;;0.89;62.30;97944.50;5073645;28;20173;-60
2022/02/28 01:13:45;;;;;;;11.03;7.30;;;;;;;0.91;62.64;97947.75;5072933;28;20631;-60
2022/02/28 01:16:10;;;;;;;7.53;5.83;;;;;;;0.97;62.70;97945.44;5073754;28;20231;-60
2022/02/28 01:18:35;;;;;;;12.37;6.80;;;;;;;0.80;62.98;97949.53;5073523;28;20233;-60
2022/02/28 01:21:01;;;;;;;9.73;6.33;;;;;;;0.83;63.16;97953.59;5073763;28;20177;-60
2022/02/28 01:23:27;;;;;;;8.33;6.83;;;;;;;0.98;62.63;97952.22;5073785;28;20235;-62
2022/02/28 01:25:52;;;;;;;11.10;7.10;;;;;;;0.91;63.00;97945.97;5056806;28;20250;-61
2022/02/28 01:28:18;;;;;;;11.10;6.83;;;;;;;0.95;62.67;97949.91;5071915;28;20184;-60
2022/02/28 01:30:43;;;;;;;9.43;6.60;;;;;;;0.88;63.10;97948.84;5071811;28;20262;-62
2022/02/28 01:33:09;;;;;;;12.33;6.27;;;;;;;0.70;63.45;97942.75;5073859;28;20275;-60
2022/02/28 01:35:34;;;;;;;9.67;6.77;;;;;;;0.56;64.40;97948.31;5073725;28;20173;-60
2022/02/28 01:38:00;;;;;;;10.17;6.83;;;;;;;0.62;63.89;97937.44;5073427;28;20591;-61
2022/02/28 01:40:26;;;;;;;10.53;6.63;;;;;;;0.64;64.12;97940.69;5072517;28;20196;-61
2022/02/28 01:42:52;;;;;;;8.70;6.70;;;;;;;0.60;64.24;97945.31;5073655;28;20641;-60
2022/02/28 01:45:22;;;;;;;8.97;6.30;;;;;;;0.46;64.24;97947.47;5071754;28;20185;-62
2022/02/28 01:47:53;;;;;;;9.27;6.27;;;;;;;0.51;64.63;97945.31;5073376;28;20235;-61
2022/02/28 01:50:19;;;;;;;10.00;6.60;;;;;;;0.61;63.96;97943.56;5073173;28;20173;-61
2022/02/28 01:52:45;;;;;;;9.83;6.97;;;;;;;0.61;64.19;97946.97;5072737;28;20181;-61
2022/02/28 01:55:13;;;;;;;10.37;6.37;;;;;;;0.52;64.39;97944.34;5071382;28;20209;-61
2022/02/28 01:57:40;;;;;;;12.97;7.17;;;;;;;0.64;63.83;97930.38;5060282;28;20284;-61
2022/02/28 02:00:08;;;;;;;10.80;6.13;;;;;;;0.67;63.86;97927.53;5072747;28;20229;-61
2022/02/28 02:02:33;;;;;;;9.17;7.00;;;;;;;0.76;63.29;97932.69;5073162;28;20231;-61
2022/02/28 02:04:59;;;;;;;8.87;5.93;;;;;;;0.61;64.00;97935.81;5072764;28;20177;-61
2022/02/28 02:07:24;;;;;;;9.17;6.90;;;;;;;0.70;63.74;97937.56;5072098;28;20189;-61
2022/02/28 02:09:49;;;;;;;9.73;6.47;;;;;;;0.64;63.46;97931.19;5072450;28;20587;-61
2022/02/28 02:12:15;;;;;;;9.03;6.37;;;;;;;0.55;63.96;97932.03;5072627;28;20252;-61
2022/02/28 02:14:41;;;;;;;8.90;6.03;;;;;;;0.56;64.49;97923.31;5072936;28;20177;-61
2022/02/28 02:17:06;;;;;;;9.50;6.23;;;;;;;0.52;64.17;97929.69;5071951;28;20624;-61
2022/02/28 02:19:35;;;;;;;10.03;6.50;;;;;;;0.57;64.08;97930.09;5072107;28;20217;-61
2022/02/28 02:22:00;;;;;;;9.27;6.67;;;;;;;0.51;64.37;97928.06;5072272;28;20257;-61
2022/02/28 02:24:26;;;;;;;8.47;6.47;;;;;;;0.47;64.84;97920.75;5072177;28;20240;-61
2022/02/28 02:26:51;;;;;;;7.97;6.57;;;;;;;0.49;64.79;97927.41;5072897;28;20223;-61
2022/02/28 02:29:17;;;;;;;8.77;6.83;;;;;;;0.47;64.67;97929.28;5071844;28;20177;-61
2022/02/28 02:31:42;;;;;;;9.67;6.73;;;;;;;0.49;64.73;97937.72;5072532;28;20203;-61
2022/02/28 02:34:07;;;;;;;11.67;6.53;;;;;;;0.55;64.42;97941.53;5072583;28;20173;-61
2022/02/28 02:36:33;;;;;;;10.63;7.07;;;;;;;0.55;64.33;97941.53;5070743;28;20165;-61
2022/02/28 02:38:58;;;;;;;11.07;6.80;;;;;;;0.45;64.63;97941.50;5071702;28;20666;-61
2022/02/28 02:41:23;;;;;;;9.93;6.47;;;;;;;0.43;65.39;97943.41;5072377;28;20177;-62
2022/02/28 02:43:49;;;;;;;10.60;7.13;;;;;;;0.45;64.78;97941.50;5057980;28;20181;-61
2022/02/28 02:46:14;;;;;;;9.67;6.57;;;;;;;0.37;65.35;97944.75;5072586;28;20173;-61
2022/02/28 02:48:40;;;;;;;8.13;6.47;;;;;;;0.27;65.96;97943.13;5071494;28;20197;-61
2022/02/28 02:51:05;;;;;;;9.80;7.17;;;;;;;0.10;65.95;97939.44;5070570;28;20177;-61
2022/02/28 02:53:31;;;;;;;12.30;7.07;;;;;;;0.07;66.54;97936.28;5071952;28;20858;-61
2022/02/28 02:55:56;;;;;;;10.83;5.80;;;;;;;0.17;66.38;97935.34;5071226;28;20177;-61
2022/02/28 02:58:22;;;;;;;11.67;6.53;;;;;;;0.11;66.23;97932.53;5071855;28;20237;-61
2022/02/28 03:00:50;;;;;;;11.47;6.67;;;;;;;0.27;65.80;97937.97;5071709;28;20538;-61
2022/02/28 03:03:19;;;;;;;11.60;6.90;;;;;;;0.21;65.87;97941.91;5072391;28;20170;-61
2022/02/28 03:05:48;;;;;;;13.87;7.40;;;;;;;0.34;65.47;97929.53;5071882;28;20185;-61
2022/02/28 03:08:14;;;;;;;10.07;6.73;;;;;;;0.29;66.02;97931.72;5071865;28;20289;-61
2022/02/28 03:10:39;;;;;;;12.50;7.67;;;;;;;0.30;65.89;97935.09;5071545;28;20201;-61
2022/02/28 03:13:05;;;;;;;9.93;6.80;;;;;;;0.32;65.64;97931.47;5071715;28;20178;-61
2022/02/28 03:15:31;;;;;;;9.63;6.90;;;;;;;0.28;65.57;97934.44;5072000;28;20177;-61
2022/02/28 03:17:56;;;;;;;11.13;6.90;;;;;;;0.17;66.31;97932.00;5071612;28;20229;-61
2022/02/28 03:20:22;;;;;;;12.67;7.20;;;;;;;0.27;65.98;97930.22;5071780;28;20181;-62
2022/02/28 03:22:48;;;;;;;11.67;7.03;;;;;;;0.16;65.90;97938.91;5070063;28;20633;-61
2022/02/28 03:25:14;;;;;;;12.27;7.40;;;;;;;0.26;66.07;97933.75;5071808;28;20173;-61
2022/02/28 03:27:39;;;;;;;10.00;7.20;;;;;;;0.23;66.10;97939.16;5071608;28;20181;-61
2022/02/28 03:30:07;;;;;;;9.07;6.60;;;;;;;0.35;65.75;97940.69;5071868;28;20630;-61
2022/02/28 03:32:32;;;;;;;10.27;6.93;;;;;;;0.15;66.14;97937.28;5071651;28;20264;-61
2022/02/28 03:34:58;;;;;;;12.13;7.27;;;;;;;0.15;66.36;97939.84;5070163;28;20256;-61
2022/02/28 03:37:23;;;;;;;10.00;7.03;;;;;;;0.13;66.40;97941.72;5075277;28;20552;-61
2022/02/28 03:39:48;;;;;;;10.37;7.13;;;;;;;0.21;66.35;97938.50;5075386;28;20169;-62
2022/02/28 03:42:14;;;;;;;9.43;6.30;;;;;;;0.07;66.82;97942.25;5075495;28;20192;-61
2022/02/28 03:44:40;;;;;;;9.70;6.33;;;;;;;-0.03;67.00;97944.81;5074354;28;20177;-61
2022/02/28 03:47:06;;;;;;;9.00;6.77;;;;;;;-0.22;67.55;97942.16;5074756;28;20177;-61
2022/02/28 03:49:31;;;;;;;12.00;6.50;;;;;;;-0.10;67.25;97941.13;5074339;28;20177;-61
2022/02/28 03:51:57;;;;;;;9.37;7.20;;;;;;;-0.04;67.09;97943.19;5075494;28;20181;-61
2022/02/28 03:54:22;;;;;;;11.40;6.67;;;;;;;-0.09;66.94;97947.09;5074035;28;20662;-61
2022/02/28 03:56:48;;;;;;;12.67;8.17;;;;;;;-0.10;67.48;97937.75;5074750;28;20323;-61
2022/02/28 03:59:14;;;;;;;12.80;7.50;;;;;;;-0.05;66.98;97940.72;5075425;28;20654;-61
2022/02/28 04:01:39;;;;;;;12.73;7.10;;;;;;;-0.05;66.83;97938.97;5074970;28;20181;-61
2022/02/28 04:04:05;;;;;;;11.63;7.37;;;;;;;-0.01;66.55;97935.22;5074773;28;20173;-61
2022/02/28 04:06:32;;;;;;;10.97;7.43;;;;;;;0.08;66.78;97946.47;5074769;28;20184;-60
2022/02/28 04:08:59;;;;;;;11.10;7.13;;;;;;;0.05;66.95;97933.88;5075331;28;20181;-62
2022/02/28 04:11:24;;;;;;;10.23;7.07;;;;;;;0.01;67.11;97940.22;5062068;28;20562;-61
2022/02/28 04:13:50;;;;;;;11.30;7.60;;;;;;;0.05;67.20;97935.63;5075299;28;20184;-61
2022/02/28 04:16:16;;;;;;;10.40;7.03;;;;;;;-0.04;67.62;97940.59;5074100;28;20208;-61
2022/02/28 04:18:41;;;;;;;11.07;7.10;;;;;;;-0.01;67.34;97939.53;5075023;28;20232;-61
2022/02/28 04:21:07;;;;;;;11.60;7.57;;;;;;;-0.01;67.30;97945.50;5073689;28;20230;-61
2022/02/28 04:23:32;;;;;;;13.40;7.33;;;;;;;-0.01;67.56;97937.78;5074745;28;20182;-61
2022/02/28 04:26:00;;;;;;;13.57;7.50;;;;;;;0.02;67.41;97931.53;5074499;28;20185;-61
2022/02/28 04:28:25;;;;;;;10.27;7.30;;;;;;;-0.06;67.71;97936.56;5074616;28;20177;-61
2022/02/28 04:30:51;;;;;;;10.53;7.53;;;;;;;-0.24;67.98;97931.22;5074251;28;20598;-61
2022/02/28 04:33:17;;;;;;;8.87;6.40;;;;;;;-0.16;67.53;97923.63;5074932;28;20184;-61
2022/02/28 04:35:42;;;;;;;10.67;6.87;;;;;;;-0.15;67.89;97929.59;5073843;28;20484;-61
2022/02/28 04:38:07;;;;;;;10.57;7.17;;;;;;;-0.20;67.56;97930.00;5072660;28;20229;-63
2022/02/28 04:40:34;;;;;;;10.50;6.77;;;;;;;-0.29;67.64;97933.34;5074347;28;20197;-61
2022/02/28 04:42:59;;;;;;;12.60;7.00;;;;;;;-0.20;67.73;97934.31;5074857;28;20207;-61
2022/02/28 04:45:25;;;;;;;14.80;8.10;;;;;;;-0.24;68.02;97930.38;5074636;28;20185;-61
2022/02/28 04:47:50;;;;;;;14.33;7.37;;;;;;;-0.32;68.17;97932.78;5074370;28;20318;-61
2022/02/28 04:50:15;;;;;;;13.00;7.53;;;;;;;-0.31;67.85;97927.50;5074492;28;20185;-61
2022/02/28 04:52:41;;;;;;;11.07;7.40;;;;;;;-0.29;67.80;97923.06;5074386;28;20455;-61
2022/02/28 04:55:07;;;;;;;12.43;7.97;;;;;;;-0.20;67.90;97931.75;5073844;28;20185;-61
2022/02/28 04:57:43;;;;;;;11.53;7.77;;;;;;;-0.29;68.04;97928.22;5072338;28;20216;-61
2022/02/28 05:00:11;;;;;;;10.77;7.40;;;;;;;-0.30;68.24;97923.19;5074025;28;20204;-61
2022/02/28 05:02:36;;;;;;;12.17;6.57;;;;;;;-0.33;68.64;97931.16;5073657;28;20185;-61
2022/02/28 05:05:03;;;;;;;9.93;6.97;;;;;;;-0.33;68.19;97933.72;5074151;28;20273;-62
2022/02/28 05:07:29;;;;;;;13.27;7.80;;;;;;;-0.39;68.31;97944.56;5073435;28;20527;-62
2022/02/28 05:09:54;;;;;;;9.67;7.30;;;;;;;-0.29;68.04;97941.09;5073585;28;20181;-61
2022/02/28 05:12:19;;;;;;;10.87;7.47;;;;;;;-0.27;68.15;97948.66;5072996;28;20514;-61
2022/02/28 05:14:45;;;;;;;17.30;7.90;;;;;;;-0.26;68.20;97947.72;5072923;28;20533;-61
2022/02/28 05:17:10;;;;;;;10.77;7.40;;;;;;;-0.26;68.20;97945.97;5073516;28;20177;-61
2022/02/28 05:19:36;;;;;;;13.73;7.87;;;;;;;-0.29;68.42;97948.00;5073147;28;20240;-63
2022/02/28 05:22:04;;;;;;;10.80;7.83;;;;;;;-0.14;68.08;97950.06;5072283;28;20177;-61
2022/02/28 05:24:31;;;;;;;13.17;7.80;;;;;;;-0.23;68.32;97950.88;5073442;28;20172;-61
2022/02/28 05:26:57;;;;;;;11.67;8.20;;;;;;;-0.36;68.46;97955.41;5073532;28;20188;-61
2022/02/28 05:29:22;;;;;;;13.87;8.47;;;;;;;-0.46;68.91;97955.38;5073566;28;20181;-61
2022/02/28 05:31:48;;;;;;;10.70;8.50;;;;;;;-0.46;68.73;97965.69;5073690;28;20220;-61
2022/02/28 05:34:13;;;;;;;13.47;8.57;;;;;;;-0.49;69.14;97959.97;5072116;28;20190;-61
2022/02/28 05:36:38;;;;;;;13.03;7.73;;;;;;;-0.46;69.41;97960.53;5072926;28;20180;-61
2022/02/28 05:39:04;;;;;;;11.70;7.53;;;;;;;-0.46;69.11;97962.28;5071427;28;20557;-61
2022/02/28 05:41:29;;;;;;;12.50;8.23;;;;;;;-0.42;69.56;97971.38;5073092;28;20177;-61
2022/02/28 05:43:55;;;;;;;11.93;7.63;;;;;;;-0.46;69.31;97967.44;5073443;28;20269;-61
2022/02/28 05:46:20;;;;;;;10.93;7.63;;;;;;;-0.61;70.20;97966.94;5073241;28;20177;-61
2022/02/28 05:48:46;;;;;;;14.00;8.20;;;;;;;-0.62;69.71;97965.34;5072946;28;20659;-61
2022/02/28 05:51:11;;;;;;;11.50;7.70;;;;;;;-0.81;70.89;97966.97;5072744;28;20634;-62
2022/02/28 05:53:36;;;;;;;10.80;7.93;;;;;;;-0.79;70.47;97965.91;5071725;28;20618;-61
2022/02/28 05:56:02;;;;;;;12.80;7.57;;;;;;;-0.78;70.34;97964.94;5071181;28;20181;-62
2022/02/28 05:58:28;;;;;;;10.37;7.67;;;;;;;-0.64;70.29;97969.78;5072258;28;20194;-62
2022/02/28 06:00:53;;;;;;;12.43;8.03;;;;;;;-0.60;70.15;97971.16;5073254;28;20174;-60
2022/02/28 06:03:19;;;;;;;13.70;8.23;;;;;;;-0.66;70.05;97979.38;5072758;28;20189;-60
2022/02/28 06:05:44;;;;;;;12.50;8.33;;;;;;;-0.59;70.46;97977.94;5071898;28;20527;-60
2022/02/28 06:08:09;;;;;;;13.33;8.70;;;;;;;-0.50;69.65;97976.34;5071424;28;20188;-62
2022/02/28 06:10:35;;;;;;;13.57;7.30;;;;;;;-0.62;69.62;97977.38;5072409;28;20185;-62
2022/02/28 06:13:00;;;;;;;11.17;7.43;;;;;;;-0.57;69.69;97973.50;5072672;28;20177;-61
2022/02/28 06:15:26;;;;;;;17.00;8.27;;;;;;;-0.58;70.13;97977.00;5072599;28;20178;-60
2022/02/28 06:17:51;;;;;;;11.43;7.50;;;;;;;-0.62;69.77;97983.34;5072111;28;20700;-63
2022/02/28 06:20:17;;;;;;;13.47;8.10;;;;;;;-0.51;69.66;97980.72;5072018;28;20174;-60
2022/02/28 06:22:44;;;;;;;13.93;7.73;;;;;;;-0.34;69.03;97976.72;5072327;28;20252;-61
2022/02/28 06:25:10;;;;;;;17.30;8.70;;;;;;;-0.34;68.80;97988.78;5072634;28;20173;-61
2022/02/28 06:27:35;;;;;;;15.77;7.97;;;;;;;-0.37;69.23;97986.44;5071875;28;20276;-61
2022/02/28 06:30:00;;;;;;;14.10;7.40;;;;;;;-0.19;68.66;97985.72;5072654;28;20495;-61
2022/02/28 06:32:26;;;;;;;12.93;8.10;;;;;;;-0.27;68.59;97990.69;5072501;28;20189;-60
2022/02/28 06:34:51;;;;;;;12.87;7.80;;;;;;;-0.26;68.66;97994.09;5073154;28;20218;-60
2022/02/28 06:37:17;;;;;;;11.07;7.50;;;;;;;-0.12;68.49;97998.91;5072389;28;20626;-60
2022/02/28 06:39:45;;;;;;;13.97;7.63;;;;;;;0.16;69.45;97998.19;5068406;28;20184;-62
2022/02/28 06:42:11;;;;;;;15.17;8.60;;;;;;;0.33;68.35;98000.13;5072012;28;20181;-60
2022/02/28 06:44:36;;;;;;;16.40;8.57;;;;;;;0.34;67.05;97996.59;5072083;28;20714;-61
2022/02/28 06:47:02;;;;;;;10.93;7.63;;;;;;;0.44;66.67;97995.81;5071999;28;20172;-60
2022/02/28 06:49:28;;;;;;;13.57;7.37;;;;;;;0.47;66.23;97995.53;5072583;28;20192;-60
2022/02/28 06:51:53;;;;;;;11.07;7.57;;;;;;;0.52;66.04;97993.34;5071029;28;20212;-61
2022/02/28 06:54:18;;;;;;;14.07;7.93;;;;;;;0.73;65.53;97994.88;5070283;28;20173;-63
2022/02/28 06:56:44;;;;;;;10.40;7.10;;;;;;;0.87;64.70;97995.44;5071931;28;20181;-61
2022/02/28 06:59:10;;;;;;;13.33;7.93;;;;;;;0.77;64.99;97987.69;5071596;28;20201;-60
2022/02/28 07:01:36;;;;;;;13.27;7.50;;;;;;;0.97;64.28;97991.06;5072130;28;20261;-62
2022/02/28 07:04:02;;;;;;;11.23;7.90;;;;;;;1.07;64.11;97991.88;5072216;28;20268;-61
2022/02/28 07:06:28;;;;;;;14.10;8.13;;;;;;;1.04;64.02;97992.16;5071558;28;20178;-61
2022/02/28 07:08:54;;;;;;;10.50;7.70;;;;;;;1.06;64.22;98003.19;5072235;28;20185;-62
2022/02/28 07:11:20;;;;;;;12.40;8.33;;;;;;;0.99;64.17;98000.31;5070789;28;20188;-63
2022/02/28 07:13:45;;;;;;;13.23;7.67;;;;;;;1.06;63.08;98001.38;5072512;28;20203;-61
2022/02/28 07:16:11;;;;;;;11.90;7.90;;;;;;;1.06;63.33;97998.00;5071499;28;20185;-62
2022/02/28 07:18:36;;;;;;;12.03;7.83;;;;;;;1.13;63.36;98001.66;5072091;28;20233;-62
2022/02/28 07:21:02;;;;;;;11.77;7.60;;;;;;;1.25;62.68;98000.56;5071256;28;20204;-63
2022/02/28 07:23:27;;;;;;;12.00;8.00;;;;;;;1.41;62.68;98002.56;5072053;28;20251;-63
2022/02/28 07:25:53;;;;;;;11.27;7.27;;;;;;;1.27;62.02;98009.00;5071879;28;20205;-63
2022/02/28 07:28:18;;;;;;;11.60;8.10;;;;;;;1.43;62.70;98013.59;5071096;28;20189;-63
2022/02/28 07:30:43;;;;;;;10.37;7.00;;;;;;;1.71;63.06;98009.31;5071291;28;20173;-63
2022/02/28 07:33:09;;;;;;;;;;;;;;;1.88;62.46;98016.31;5071758;28;20099;-64
2022/02/28 07:35:34;;;;;;;;;;;;;;;2.07;62.03;98011.88;5072098;28;19916;-64
2022/02/28 07:38:00;;;;;;;;;;;;;;;2.29;61.14;98015.03;5071260;28;20000;-64
2022/02/28 07:40:25;;;;;;;;;;;;;;;2.28;60.28;98016.81;5071121;28;19987;-65
2022/02/28 07:42:50;;;;;;;;;;;;;;;2.03;59.80;98017.47;5071441;28;19955;-64
2022/02/28 07:45:16;;;;;;;;;;;;;;;1.89;60.39;98015.38;5071516;28;19917;-63
2022/02/28 07:47:41;;;;;;;;;;;;;;;1.76;60.82;98018.25;5070383;28;19916;-63
2022/02/28 07:50:07;;;;;;;;;;;;;;;2.28;70.65;98018.59;5070086;28;19924;-64
2022/02/28 07:52:32;;;;;;;;;;;;;;;3.39;59.06;98010.41;5071726;28;19912;-63
2022/02/28 07:54:57;;;;;;;;;;;;;;;2.70;57.81;98016.28;5070937;28;19982;-63
2022/02/28 07:57:22;;;;;;;;;;;;;;;2.49;58.88;98025.16;5070919;28;19924;-62
2022/02/28 07:59:48;;;;;;;;;;;;;;;2.59;58.39;98019.91;5070635;28;19912;-62
2022/02/28 08:02:13;;;;;;;;;;;;;;;2.60;59.20;98020.72;5071983;28;20372;-63
2022/02/28 08:04:38;;;;;;;;;;;;;;;2.70;58.81;98022.28;5071203;28;19913;-63
2022/02/28 08:07:04;;;;;;;;;;;;;;;2.97;57.63;98026.56;5071880;28;20011;-63
2022/02/28 08:09:30;;;;;;;;;;;;;;;2.96;58.06;98027.53;5071455;28;19939;-63
2022/02/28 08:11:55;;;;;;;;;;;;;;;2.77;57.82;98027.69;5071930;28;19916;-62
2022/02/28 08:14:21;;;;;;;;;;;;;;;3.02;57.30;98029.53;5071345;28;19919;-62
2022/02/28 08:16:46;;;;;;;;;;;;;;;2.89;57.06;98027.34;5072317;28;19916;-62
2022/02/28 08:19:11;;;;;;;;;;;;;;;2.73;57.13;98021.19;5065369;28;19999;-62
2022/02/28 08:21:37;;;;;;;;;;;;;;;2.87;56.72;98033.59;5062766;28;19951;-62
2022/02/28 08:24:02;;;;;;;;;;;;;;;2.86;57.52;98030.22;5075226;28;20254;-63
2022/02/28 08:26:27;;;;;;;;;;;;;;;2.69;56.76;98037.94;5075109;28;19998;-63
2022/02/28 08:28:53;;;;;;;;;;;;;;;2.79;56.75;98036.94;5075409;28;19920;-62
2022/02/28 08:31:18;;;;;;;;;;;;;;;2.92;57.30;98039.97;5075153;28;19957;-62
2022/02/28 08:33:43;;;;;;;;;;;;;;;3.15;56.37;98047.31;5074608;28;19912;-63
2022/02/28 08:36:08;;;;;;;;;;;;;;;3.00;57.23;98044.44;5073366;28;19985;-63
2022/02/28 08:38:34;;;;;;;;;;;;;;;3.03;56.01;98051.88;5073423;28;19920;-64
2022/02/28 08:40:59;;;;;;;;;;;;;;;2.98;56.63;98054.09;5074482;28;19949;-63
2022/02/28 08:43:26;;;;;;;;;;;;;;;3.10;55.91;98059.88;5074650;28;19952;-62
2022/02/28 08:45:51;;;;;;;;;;;;;;;3.47;55.38;98054.50;5074501;28;19955;-62
2022/02/28 08:48:17;;;;;;;;;;;;;;;3.20;54.18;98058.03;5074449;28;19956;-63
2022/02/28 08:50:42;;;;;;;;;;;;;;;3.29;55.46;98054.53;5074029;28;19923;-62
2022/02/28 08:53:07;;;;;;;;;;;;;;;3.42;54.83;98057.56;5074859;28;19912;-63
2022/02/28 08:55:33;;;;;;;;;;;;;;;3.22;55.47;98058.69;5073973;28;19935;-63
2022/02/28 08:57:58;;;;;;;;;;;;;;;3.18;54.93;98058.16;5073352;28;19912;-62
2022/02/28 09:00:23;;;;;;;;;;;;;;;3.36;55.29;98052.97;5074524;28;19988;-63
2022/02/28 09:02:48;;;;;;;;;;;;;;;3.71;54.52;98047.75;5074493;28;19913;-62
2022/02/28 09:05:14;;;;;;;;;;;;;;;3.72;53.88;98043.38;5074168;28;19919;-63
2022/02/28 09:07:39;;;;;;;;;;;;;;;3.90;53.28;98051.88;5074148;28;20369;-62
2022/02/28 09:10:05;;;;;;;;;;;;;;;3.90;53.76;98048.50;5074341;28;19912;-62
2022/02/28 09:12:30;;;;;;;;;;;;;;;3.68;53.34;98055.81;5073672;28;20467;-64
2022/02/28 09:14:55;;;;;;;;;;;;;;;3.58;54.22;98049.09;5074172;28;19923;-62
2022/02/28 09:17:21;;;;;;;;;;;;;;;3.78;52.91;98050.53;5074199;28;19932;-62
2022/02/28 09:19:46;;;;;;;;;;;;;;;3.71;53.67;98050.34;5075313;28;19966;-62
2022/02/28 09:22:11;;;;;;;;;;;;;;;3.45;53.55;98043.50;5072876;28;19919;-62
2022/02/28 09:24:37;;;;;;;;;;;;;;;3.72;53.38;98045.97;5073994;28;19922;-63
2022/02/28 09:27:03;;;;;;;;;;;;;;;3.85;52.89;98051.53;5074073;28;19957;-62
2022/02/28 09:29:31;;;;;;;;;;;;;;;3.67;52.88;98046.44;5073733;28;19920;-63
2022/02/28 09:31:57;;;;;;;;;;;;;;;3.95;52.14;98046.25;5073716;28;19934;-63
2022/02/28 09:34:22;;;;;;;;;;;;;;;3.70;52.22;98053.88;5072694;28;19917;-63
2022/02/28 09:36:49;;;;;;;;;;;;;;;3.88;52.48;98046.06;5074289;28;20024;-63
2022/02/28 09:39:14;;;;;;;;;;;;;;;3.72;51.83;98039.00;5073760;28;19912;-63
2022/02/28 09:41:40;;;;;;;;;;;;;;;3.99;52.82;98042.38;5072774;28;20368;-63
2022/02/28 09:44:05;;;;;;;;;;;;;;;3.96;52.06;98037.50;5073448;28;19912;-64
2022/02/28 09:46:31;;;;;;;;;;;;;;;3.76;52.68;98039.50;5071170;28;20006;-63
2022/02/28 09:48:57;;;;;;;;;;;;;;;3.88;52.48;98040.06;5074083;28;19920;-63
2022/02/28 09:51:22;;;;;;;;;;;;;;;4.00;51.94;98037.06;5073498;28;20004;-63
2022/02/28 09:53:47;;;;;;;;;;;;;;;4.31;50.94;98045.13;5072651;28;20008;-63
2022/02/28 09:56:12;;;;;;;;;;;;;;;4.13;50.63;98047.81;5071921;28;20283;-62
2022/02/28 09:58:38;;;;;;;;;;;;;;;3.67;51.37;98045.59;5072494;28;19916;-63
2022/02/28 10:01:03;;;;;;;;;;;;;;;3.72;52.36;98041.59;5073596;28;19912;-63
2022/02/28 10:03:29;;;;;;;;;;;;;;;4.25;51.47;98045.75;5073805;28;20027;-63
2022/02/28 10:05:59;;;;;;;;;;;;;;;4.33;51.27;98056.19;5073525;28;20397;-63
2022/02/28 10:08:25;;;;;;;;;;;;;;;4.52;50.65;98050.72;5072135;28;20264;-63
2022/02/28 10:10:50;;;;;;;;;;;;;;;4.41;50.18;98055.38;5072850;28;19912;-62
2022/02/28 10:13:25;;;;;;;;;;;;;;;4.20;50.52;98053.19;5073193;28;20309;-62
2022/02/28 10:15:50;;;;;;;;;;;;;;;4.43;50.97;98054.28;5073311;28;19938;-63
2022/02/28 10:18:15;;;;;;;;;;;;;;;4.36;50.19;98055.03;5072707;28;20357;-62
2022/02/28 10:20:42;;;;;;;;;;;;;;;4.42;50.07;98057.84;5072659;28;19969;-63
2022/02/28 10:23:09;;;;;;;;;;;;;;;4.33;50.88;98051.00;5070756;28;20068;-62
2022/02/28 10:25:35;;;;;;;;;;;;;;;4.36;50.60;98052.44;5070765;28;19912;-64
2022/02/28 10:28:15;;;;;;;;;;;;;;;4.50;49.57;98052.69;5070422;28;19912;-62
2022/02/28 10:30:49;;;;;;;;;;;;;;;4.58;50.96;98052.69;5070170;28;19939;-62
2022/02/28 10:33:14;;;;;;;;;;;;;;;4.79;49.60;98043.69;5070953;28;20015;-62
2022/02/28 10:36:09;;;;;;;;;;;;;;;4.99;49.62;98037.22;5070352;28;20032;-62
2022/02/28 10:38:35;;;;;;;;;;;;;;;4.92;49.13;98039.63;5058710;28;19923;-63
2022/02/28 10:41:00;;;;;;;;;;;;;;;4.63;50.24;98041.00;5069895;28;20430;-63
2022/02/28 10:43:30;;;;;;;;;;;;;;;4.69;50.47;98041.19;5069821;28;19966;-63
2022/02/28 10:45:57;;;;;;;;;;;;;;;5.04;50.21;98029.75;5069785;28;20320;-64
2022/02/28 10:48:22;;;;;;;;;;;;;;;5.26;49.37;98031.72;5070182;28;19947;-64
2022/02/28 10:50:50;;;;;;;;;;;;;;;5.36;48.83;98028.94;5070062;28;20011;-64
2022/02/28 10:53:19;;;;;;;;;;;;;;;5.40;48.90;98028.47;5070159;28;19977;-63
2022/02/28 10:55:45;;;;;;;;;;;;;;;5.37;49.03;98030.56;5062394;28;19912;-63
2022/02/28 10:58:12;;;;;;;;;;;;;;;5.40;48.46;98025.06;5073090;28;20460;-61
2022/02/28 11:00:54;;;;;;;;;;;;;;;5.42;48.68;98023.91;5072593;28;19912;-63
2022/02/28 11:03:19;;;;;;;;;;;;;;;5.37;48.78;98022.78;5071207;28;19913;-64
2022/02/28 11:05:58;;;;;;;;;;;;;;;5.58;48.40;98020.47;5072365;28;20269;-62
2022/02/28 11:08:24;;;;;;;;;;;;;;;5.45;47.80;98027.97;5072427;28;20388;-62
2022/02/28 11:10:51;;;;;;;;;;;;;;;5.22;48.48;98024.41;5072422;28;19912;-63
2022/02/28 11:13:16;;;;;;;;;;;;;;;5.35;47.61;98015.13;5071431;28;20014;-63
2022/02/28 11:15:42;;;;;;;;;;;;;;;5.44;48.01;98008.16;5070919;28;20054;-63
2022/02/28 11:18:13;;;;;;;;;;;;;;;5.47;47.55;98012.19;5072290;28;19912;-62
2022/02/28 11:20:38;;;;;;;;;;;;;;;5.70;46.50;98002.75;5072100;28;19921;-61
2022/02/28 11:23:04;;;;;;;;;;;;;;;5.73;46.32;98011.03;5072036;28;19995;-61
2022/02/28 11:25:30;;;;;;;;;;;;;;;5.65;46.34;98002.44;5072269;28;19912;-62
2022/02/28 11:27:57;;;;;;;;;;;;;;;5.99;45.98;98004.81;5072130;28;19919;-62
2022/02/28 11:30:23;;;;;;;;;;;;;;;6.08;45.65;97999.41;5070905;28;20327;-63
2022/02/28 11:32:55;;;;;;;;;;;;;;;5.63;45.50;98001.81;5072222;28;20272;-62
2022/02/28 11:35:38;;;;;;;;;;;;;;;5.65;45.69;97995.44;5072640;28;19913;-62
2022/02/28 11:38:06;;;;;;;;;;;;;;;5.75;45.00;97996.06;5072159;28;19924;-61
2022/02/28 11:40:33;;;;;;;;;;;;;;;5.85;45.30;97999.28;5071946;28;20249;-62
2022/02/28 11:43:01;;;;;;;;;;;;;;;5.75;44.43;98001.28;5071736;28;19919;-62
2022/02/28 11:45:30;;;;;;;13.13;7.23;;;;;;;5.72;44.46;97993.81;5060630;28;20203;-62
2022/02/28 11:48:09;;;;;;;10.90;7.73;;;;;;;5.66;44.74;97997.06;5070235;28;20419;-62
2022/02/28 11:50:54;;;;;;;9.87;8.00;;;;;;;6.13;44.41;97986.72;5070290;28;20384;-62
2022/02/28 11:53:38;;;;;;;9.10;6.77;;;;;;;6.52;43.22;97983.28;5071798;28;20253;-63
2022/02/28 11:56:15;;;;;;;10.87;7.20;;;;;;;6.49;43.23;97991.44;5070935;28;20193;-63